sensor_id;sensor_type;location;lat;lon;timestamp;P1;P2;P0
47081;PMS5003;33066;49.296;14.470;2022-08-19T00:02:16;24;23;
47081;PMS5003;33066;49.296;14.470;2022-08-19T00:04:41;28;28;
47081;PMS5003;33066;49.296;14.470;2022-08-19T00:07:06;26;26;
47081;PMS5003;33066;49.296;14.470;2022-08-19T00:09:33;9;7;
47081;PMS5003;33066;49.296;14.470;2022-08-19T00:11:58;26;26;
47081;PMS5003;33066;49.296;14.470;2022-08-19T00:14:22;33;32;
47081;PMS5003;33066;49.296;14.470;2022-08-19T00:16:47;44;44;
47081;PMS5003;33066;49.296;14.470;2022-08-19T00:19:13;38;38;
47081;PMS5003;33066;49.296;14.470;2022-08-19T00:21:39;44;44;
47081;PMS5003;33066;49.296;14.470;2022-08-19T00:24:04;22;22;
47081;PMS5003;33066;49.296;14.470;2022-08-19T00:26:28;50;50;
47081;PMS5003;33066;49.296;14.470;2022-08-19T00:28:55;6;6;
47081;PMS5003;33066;49.296;14.470;2022-08-19T00:31:20;6;3;
47081;PMS5003;33066;49.296;14.470;2022-08-19T00:33:45;16;13;
47081;PMS5003;33066;49.296;14.470;2022-08-19T00:36:09;57;57;
47081;PMS5003;33066;49.296;14.470;2022-08-19T00:38:34;27;27;
47081;PMS5003;33066;49.296;14.470;2022-08-19T00:41:00;5;4;
47081;PMS5003;33066;49.296;14.470;2022-08-19T00:43:25;4;4;
47081;PMS5003;33066;49.296;14.470;2022-08-19T00:45:50;4;4;
47081;PMS5003;33066;49.296;14.470;2022-08-19T00:48:14;6;5;
47081;PMS5003;33066;49.296;14.470;2022-08-19T00:50:39;7;7;
47081;PMS5003;33066;49.296;14.470;2022-08-19T00:53:04;6;6;
47081;PMS5003;33066;49.296;14.470;2022-08-19T00:55:29;6;6;
47081;PMS5003;33066;49.296;14.470;2022-08-19T00:57:57;5;5;
47081;PMS5003;33066;49.296;14.470;2022-08-19T01:00:19;5;5;
47081;PMS5003;33066;49.296;14.470;2022-08-19T01:02:46;4;4;
47081;PMS5003;33066;49.296;14.470;2022-08-19T01:05:11;7;6;
47081;PMS5003;33066;49.296;14.470;2022-08-19T01:07:35;5;5;
47081;PMS5003;33066;49.296;14.470;2022-08-19T01:10:00;6;6;
47081;PMS5003;33066;49.296;14.470;2022-08-19T01:12:26;9;6;
47081;PMS5003;33066;49.296;14.470;2022-08-19T01:14:50;5;5;
47081;PMS5003;33066;49.296;14.470;2022-08-19T01:17:17;6;6;
47081;PMS5003;33066;49.296;14.470;2022-08-19T01:19:42;7;7;
47081;PMS5003;33066;49.296;14.470;2022-08-19T01:22:08;10;6;
47081;PMS5003;33066;49.296;14.470;2022-08-19T01:24:30;6;6;
47081;PMS5003;33066;49.296;14.470;2022-08-19T01:26:55;5;5;
47081;PMS5003;33066;49.296;14.470;2022-08-19T01:29:22;5;5;
47081;PMS5003;33066;49.296;14.470;2022-08-19T01:31:46;6;4;
47081;PMS5003;33066;49.296;14.470;2022-08-19T01:34:11;7;6;
47081;PMS5003;33066;49.296;14.470;2022-08-19T01:36:39;4;4;
47081;PMS5003;33066;49.296;14.470;2022-08-19T01:39:03;4;4;
47081;PMS5003;33066;49.296;14.470;2022-08-19T01:41:26;6;6;
47081;PMS5003;33066;49.296;14.470;2022-08-19T01:43:51;5;5;
47081;PMS5003;33066;49.296;14.470;2022-08-19T01:46:17;7;7;
47081;PMS5003;33066;49.296;14.470;2022-08-19T01:48:43;3;3;
47081;PMS5003;33066;49.296;14.470;2022-08-19T01:51:07;6;5;
47081;PMS5003;33066;49.296;14.470;2022-08-19T01:53:34;8;6;
47081;PMS5003;33066;49.296;14.470;2022-08-19T01:55:57;7;7;
47081;PMS5003;33066;49.296;14.470;2022-08-19T01:58:23;6;6;
47081;PMS5003;33066;49.296;14.470;2022-08-19T02:00:47;5;5;
47081;PMS5003;33066;49.296;14.470;2022-08-19T02:03:12;5;5;
47081;PMS5003;33066;49.296;14.470;2022-08-19T02:05:38;9;9;
47081;PMS5003;33066;49.296;14.470;2022-08-19T02:08:03;9;8;
47081;PMS5003;33066;49.296;14.470;2022-08-19T02:10:28;7;7;
47081;PMS5003;33066;49.296;14.470;2022-08-19T02:12:52;9;7;
47081;PMS5003;33066;49.296;14.470;2022-08-19T02:15:19;9;8;
47081;PMS5003;33066;49.296;14.470;2022-08-19T02:17:42;7;7;
47081;PMS5003;33066;49.296;14.470;2022-08-19T02:20:10;11;9;
47081;PMS5003;33066;49.296;14.470;2022-08-19T02:22:34;10;10;
47081;PMS5003;33066;49.296;14.470;2022-08-19T02:25:00;9;7;
47081;PMS5003;33066;49.296;14.470;2022-08-19T02:27:25;8;8;
47081;PMS5003;33066;49.296;14.470;2022-08-19T02:29:49;11;8;
47081;PMS5003;33066;49.296;14.470;2022-08-19T02:32:17;7;7;
47081;PMS5003;33066;49.296;14.470;2022-08-19T02:34:41;9;9;
47081;PMS5003;33066;49.296;14.470;2022-08-19T02:37:05;10;10;
47081;PMS5003;33066;49.296;14.470;2022-08-19T02:39:30;9;8;
47081;PMS5003;33066;49.296;14.470;2022-08-19T02:41:55;6;6;
47081;PMS5003;33066;49.296;14.470;2022-08-19T02:44:22;10;8;
47081;PMS5003;33066;49.296;14.470;2022-08-19T02:46:47;7;7;
47081;PMS5003;33066;49.296;14.470;2022-08-19T02:49:12;7;7;
47081;PMS5003;33066;49.296;14.470;2022-08-19T02:51:38;7;7;
47081;PMS5003;33066;49.296;14.470;2022-08-19T02:54:03;9;7;
47081;PMS5003;33066;49.296;14.470;2022-08-19T02:56:28;7;7;
47081;PMS5003;33066;49.296;14.470;2022-08-19T02:58:52;7;7;
47081;PMS5003;33066;49.296;14.470;2022-08-19T03:01:22;8;8;
47081;PMS5003;33066;49.296;14.470;2022-08-19T03:03:42;8;8;
47081;PMS5003;33066;49.296;14.470;2022-08-19T03:06:09;7;7;
47081;PMS5003;33066;49.296;14.470;2022-08-19T03:08:33;7;7;
47081;PMS5003;33066;49.296;14.470;2022-08-19T03:12:59;6;6;
47081;PMS5003;33066;49.296;14.470;2022-08-19T03:15:24;7;7;
47081;PMS5003;33066;49.296;14.470;2022-08-19T03:17:49;9;8;
47081;PMS5003;33066;49.296;14.470;2022-08-19T03:20:14;7;5;
47081;PMS5003;33066;49.296;14.470;2022-08-19T03:22:39;5;5;
47081;PMS5003;33066;49.296;14.470;2022-08-19T03:25:04;8;8;
47081;PMS5003;33066;49.296;14.470;2022-08-19T03:27:29;6;6;
47081;PMS5003;33066;49.296;14.470;2022-08-19T03:29:54;7;7;
47081;PMS5003;33066;49.296;14.470;2022-08-19T03:32:19;8;7;
47081;PMS5003;33066;49.296;14.470;2022-08-19T03:34:44;6;6;
47081;PMS5003;33066;49.296;14.470;2022-08-19T03:37:10;7;7;
47081;PMS5003;33066;49.296;14.470;2022-08-19T03:39:37;6;6;
47081;PMS5003;33066;49.296;14.470;2022-08-19T03:42:00;6;5;
47081;PMS5003;33066;49.296;14.470;2022-08-19T03:44:25;7;6;
47081;PMS5003;33066;49.296;14.470;2022-08-19T03:46:51;5;5;
47081;PMS5003;33066;49.296;14.470;2022-08-19T03:49:17;7;7;
47081;PMS5003;33066;49.296;14.470;2022-08-19T03:51:41;6;6;
47081;PMS5003;33066;49.296;14.470;2022-08-19T03:54:06;8;6;
47081;PMS5003;33066;49.296;14.470;2022-08-19T03:56:30;7;6;
47081;PMS5003;33066;49.296;14.470;2022-08-19T03:58:57;11;8;
47081;PMS5003;33066;49.296;14.470;2022-08-19T04:01:21;6;6;
47081;PMS5003;33066;49.296;14.470;2022-08-19T04:03:47;6;6;
47081;PMS5003;33066;49.296;14.470;2022-08-19T04:06:11;15;7;
47081;PMS5003;33066;49.296;14.470;2022-08-19T04:08:37;8;7;
47081;PMS5003;33066;49.296;14.470;2022-08-19T04:11:05;7;7;
47081;PMS5003;33066;49.296;14.470;2022-08-19T04:13:29;14;14;
47081;PMS5003;33066;49.296;14.470;2022-08-19T04:15:52;8;7;
47081;PMS5003;33066;49.296;14.470;2022-08-19T04:18:17;10;9;
47081;PMS5003;33066;49.296;14.470;2022-08-19T04:20:43;7;7;
47081;PMS5003;33066;49.296;14.470;2022-08-19T04:23:08;9;9;
47081;PMS5003;33066;49.296;14.470;2022-08-19T04:25:35;13;11;
47081;PMS5003;33066;49.296;14.470;2022-08-19T04:27:58;10;8;
47081;PMS5003;33066;49.296;14.470;2022-08-19T04:30:23;9;7;
47081;PMS5003;33066;49.296;14.470;2022-08-19T04:32:49;9;9;
47081;PMS5003;33066;49.296;14.470;2022-08-19T04:35:14;11;9;
47081;PMS5003;33066;49.296;14.470;2022-08-19T04:37:39;7;7;
47081;PMS5003;33066;49.296;14.470;2022-08-19T04:40:05;8;7;
47081;PMS5003;33066;49.296;14.470;2022-08-19T04:42:30;11;11;
47081;PMS5003;33066;49.296;14.470;2022-08-19T04:44:55;21;19;
47081;PMS5003;33066;49.296;14.470;2022-08-19T04:47:21;11;10;
47081;PMS5003;33066;49.296;14.470;2022-08-19T04:49:47;20;17;
47081;PMS5003;33066;49.296;14.470;2022-08-19T04:52:12;18;16;
47081;PMS5003;33066;49.296;14.470;2022-08-19T04:54:37;62;54;
47081;PMS5003;33066;49.296;14.470;2022-08-19T04:57:03;60;51;
47081;PMS5003;33066;49.296;14.470;2022-08-19T04:59:28;60;53;
47081;PMS5003;33066;49.296;14.470;2022-08-19T05:01:53;41;34;
47081;PMS5003;33066;49.296;14.470;2022-08-19T05:04:19;21;20;
47081;PMS5003;33066;49.296;14.470;2022-08-19T05:06:45;21;17;
47081;PMS5003;33066;49.296;14.470;2022-08-19T05:09:10;15;15;
47081;PMS5003;33066;49.296;14.470;2022-08-19T05:11:36;19;18;
47081;PMS5003;33066;49.296;14.470;2022-08-19T05:14:01;12;12;
47081;PMS5003;33066;49.296;14.470;2022-08-19T05:16:27;11;11;
47081;PMS5003;33066;49.296;14.470;2022-08-19T05:18:51;10;10;
47081;PMS5003;33066;49.296;14.470;2022-08-19T05:21:18;12;12;
47081;PMS5003;33066;49.296;14.470;2022-08-19T05:23:42;11;11;
47081;PMS5003;33066;49.296;14.470;2022-08-19T05:26:07;13;13;
47081;PMS5003;33066;49.296;14.470;2022-08-19T05:28:32;13;13;
47081;PMS5003;33066;49.296;14.470;2022-08-19T05:30:58;12;12;
47081;PMS5003;33066;49.296;14.470;2022-08-19T05:33:23;13;11;
47081;PMS5003;33066;49.296;14.470;2022-08-19T05:35:48;13;11;
47081;PMS5003;33066;49.296;14.470;2022-08-19T05:38:13;13;13;
47081;PMS5003;33066;49.296;14.470;2022-08-19T05:40:38;14;12;
47081;PMS5003;33066;49.296;14.470;2022-08-19T05:43:04;10;10;
47081;PMS5003;33066;49.296;14.470;2022-08-19T05:45:29;13;13;
47081;PMS5003;33066;49.296;14.470;2022-08-19T05:47:54;14;11;
47081;PMS5003;33066;49.296;14.470;2022-08-19T05:50:19;17;15;
47081;PMS5003;33066;49.296;14.470;2022-08-19T05:52:45;17;16;
47081;PMS5003;33066;49.296;14.470;2022-08-19T05:55:11;15;15;
47081;PMS5003;33066;49.296;14.470;2022-08-19T05:57:36;20;20;
47081;PMS5003;33066;49.296;14.470;2022-08-19T06:00:03;19;17;
47081;PMS5003;33066;49.296;14.470;2022-08-19T06:02:27;58;58;
47081;PMS5003;33066;49.296;14.470;2022-08-19T06:04:53;31;30;
47081;PMS5003;33066;49.296;14.470;2022-08-19T06:07:17;17;16;
47081;PMS5003;33066;49.296;14.470;2022-08-19T06:09:42;23;20;
47081;PMS5003;33066;49.296;14.470;2022-08-19T06:12:07;41;39;
47081;PMS5003;33066;49.296;14.470;2022-08-19T06:14:34;21;18;
47081;PMS5003;33066;49.296;14.470;2022-08-19T06:16:59;20;19;
47081;PMS5003;33066;49.296;14.470;2022-08-19T06:19:25;16;14;
47081;PMS5003;33066;49.296;14.470;2022-08-19T06:21:50;18;16;
47081;PMS5003;33066;49.296;14.470;2022-08-19T06:24:17;26;21;
47081;PMS5003;33066;49.296;14.470;2022-08-19T06:26:42;21;21;
47081;PMS5003;33066;49.296;14.470;2022-08-19T06:29:07;20;19;
47081;PMS5003;33066;49.296;14.470;2022-08-19T06:31:34;38;37;
47081;PMS5003;33066;49.296;14.470;2022-08-19T06:33:57;11;10;
47081;PMS5003;33066;49.296;14.470;2022-08-19T06:36:23;13;13;
47081;PMS5003;33066;49.296;14.470;2022-08-19T06:38:48;14;14;
47081;PMS5003;33066;49.296;14.470;2022-08-19T06:41:14;11;11;
47081;PMS5003;33066;49.296;14.470;2022-08-19T06:43:38;16;14;
47081;PMS5003;33066;49.296;14.470;2022-08-19T06:46:04;14;14;
47081;PMS5003;33066;49.296;14.470;2022-08-19T06:48:30;14;13;
47081;PMS5003;33066;49.296;14.470;2022-08-19T06:50:55;17;16;
47081;PMS5003;33066;49.296;14.470;2022-08-19T06:53:20;18;18;
47081;PMS5003;33066;49.296;14.470;2022-08-19T06:55:45;14;13;
47081;PMS5003;33066;49.296;14.470;2022-08-19T06:58:11;17;16;
47081;PMS5003;33066;49.296;14.470;2022-08-19T07:00:37;13;13;
47081;PMS5003;33066;49.296;14.470;2022-08-19T07:03:02;13;9;
47081;PMS5003;33066;49.296;14.470;2022-08-19T07:05:28;12;12;
47081;PMS5003;33066;49.296;14.470;2022-08-19T07:07:54;15;11;
47081;PMS5003;33066;49.296;14.470;2022-08-19T07:10:19;18;18;
47081;PMS5003;33066;49.296;14.470;2022-08-19T07:12:45;12;11;
47081;PMS5003;33066;49.296;14.470;2022-08-19T07:15:11;18;18;
47081;PMS5003;33066;49.296;14.470;2022-08-19T07:17:37;18;18;
47081;PMS5003;33066;49.296;14.470;2022-08-19T07:20:02;20;15;
47081;PMS5003;33066;49.296;14.470;2022-08-19T07:22:28;16;15;
47081;PMS5003;33066;49.296;14.470;2022-08-19T07:24:53;16;15;
47081;PMS5003;33066;49.296;14.470;2022-08-19T07:27:19;17;16;
47081;PMS5003;33066;49.296;14.470;2022-08-19T07:29:45;15;15;
47081;PMS5003;33066;49.296;14.470;2022-08-19T07:32:10;22;21;
47081;PMS5003;33066;49.296;14.470;2022-08-19T07:34:36;14;12;
47081;PMS5003;33066;49.296;14.470;2022-08-19T07:37:01;23;20;
47081;PMS5003;33066;49.296;14.470;2022-08-19T07:39:29;15;15;
47081;PMS5003;33066;49.296;14.470;2022-08-19T07:41:53;14;14;
47081;PMS5003;33066;49.296;14.470;2022-08-19T07:44:19;16;15;
47081;PMS5003;33066;49.296;14.470;2022-08-19T07:46:46;18;18;
47081;PMS5003;33066;49.296;14.470;2022-08-19T07:49:10;15;14;
47081;PMS5003;33066;49.296;14.470;2022-08-19T07:51:35;16;16;
47081;PMS5003;33066;49.296;14.470;2022-08-19T07:54:00;17;16;
47081;PMS5003;33066;49.296;14.470;2022-08-19T07:56:25;17;17;
47081;PMS5003;33066;49.296;14.470;2022-08-19T07:58:51;24;21;
47081;PMS5003;33066;49.296;14.470;2022-08-19T08:01:17;15;15;
47081;PMS5003;33066;49.296;14.470;2022-08-19T08:03:42;17;17;
47081;PMS5003;33066;49.296;14.470;2022-08-19T08:06:07;20;19;
47081;PMS5003;33066;49.296;14.470;2022-08-19T08:08:33;25;23;
47081;PMS5003;33066;49.296;14.470;2022-08-19T08:10:58;17;16;
47081;PMS5003;33066;49.296;14.470;2022-08-19T08:13:23;15;13;
47081;PMS5003;33066;49.296;14.470;2022-08-19T08:15:49;25;23;
47081;PMS5003;33066;49.296;14.470;2022-08-19T08:18:16;21;17;
47081;PMS5003;33066;49.296;14.470;2022-08-19T08:20:41;16;15;
47081;PMS5003;33066;49.296;14.470;2022-08-19T08:23:05;20;18;
47081;PMS5003;33066;49.296;14.470;2022-08-19T08:25:31;18;16;
47081;PMS5003;33066;49.296;14.470;2022-08-19T08:27:56;20;19;
47081;PMS5003;33066;49.296;14.470;2022-08-19T08:30:23;18;16;
47081;PMS5003;33066;49.296;14.470;2022-08-19T08:32:47;15;15;
47081;PMS5003;33066;49.296;14.470;2022-08-19T08:35:14;17;16;
47081;PMS5003;33066;49.296;14.470;2022-08-19T08:37:38;15;14;
47081;PMS5003;33066;49.296;14.470;2022-08-19T08:40:03;22;21;
47081;PMS5003;33066;49.296;14.470;2022-08-19T08:42:29;19;19;
47081;PMS5003;33066;49.296;14.470;2022-08-19T08:44:57;21;20;
47081;PMS5003;33066;49.296;14.470;2022-08-19T08:47:20;16;16;
47081;PMS5003;33066;49.296;14.470;2022-08-19T08:49:46;20;17;
47081;PMS5003;33066;49.296;14.470;2022-08-19T08:52:11;16;15;
47081;PMS5003;33066;49.296;14.470;2022-08-19T08:54:38;19;18;
47081;PMS5003;33066;49.296;14.470;2022-08-19T08:57:03;18;17;
47081;PMS5003;33066;49.296;14.470;2022-08-19T08:59:28;20;19;
47081;PMS5003;33066;49.296;14.470;2022-08-19T09:01:54;25;22;
47081;PMS5003;33066;49.296;14.470;2022-08-19T09:04:19;18;16;
47081;PMS5003;33066;49.296;14.470;2022-08-19T09:06:47;26;23;
47081;PMS5003;33066;49.296;14.470;2022-08-19T09:09:12;17;16;
47081;PMS5003;33066;49.296;14.470;2022-08-19T09:11:40;25;22;
47081;PMS5003;33066;49.296;14.470;2022-08-19T09:14:03;18;18;
47081;PMS5003;33066;49.296;14.470;2022-08-19T09:16:26;20;18;
47081;PMS5003;33066;49.296;14.470;2022-08-19T09:18:52;25;20;
47081;PMS5003;33066;49.296;14.470;2022-08-19T09:21:16;24;22;
47081;PMS5003;33066;49.296;14.470;2022-08-19T09:23:42;23;19;
47081;PMS5003;33066;49.296;14.470;2022-08-19T09:26:07;19;18;
47081;PMS5003;33066;49.296;14.470;2022-08-19T09:28:33;18;16;
47081;PMS5003;33066;49.296;14.470;2022-08-19T09:30:58;18;17;
47081;PMS5003;33066;49.296;14.470;2022-08-19T09:33:25;14;14;
47081;PMS5003;33066;49.296;14.470;2022-08-19T09:35:50;20;19;
47081;PMS5003;33066;49.296;14.470;2022-08-19T09:38:15;18;18;
47081;PMS5003;33066;49.296;14.470;2022-08-19T09:40:41;20;18;
47081;PMS5003;33066;49.296;14.470;2022-08-19T09:43:07;19;16;
47081;PMS5003;33066;49.296;14.470;2022-08-19T09:45:33;16;15;
47081;PMS5003;33066;49.296;14.470;2022-08-19T09:47:57;23;21;
47081;PMS5003;33066;49.296;14.470;2022-08-19T09:50:22;15;14;
47081;PMS5003;33066;49.296;14.470;2022-08-19T09:52:47;19;16;
47081;PMS5003;33066;49.296;14.470;2022-08-19T09:55:13;19;18;
47081;PMS5003;33066;49.296;14.470;2022-08-19T09:57:39;13;12;
47081;PMS5003;33066;49.296;14.470;2022-08-19T10:00:06;24;24;
47081;PMS5003;33066;49.296;14.470;2022-08-19T10:02:31;14;14;
47081;PMS5003;33066;49.296;14.470;2022-08-19T10:04:55;17;15;
47081;PMS5003;33066;49.296;14.470;2022-08-19T10:07:21;20;19;
47081;PMS5003;33066;49.296;14.470;2022-08-19T10:09:46;17;16;
47081;PMS5003;33066;49.296;14.470;2022-08-19T10:12:12;16;14;
47081;PMS5003;33066;49.296;14.470;2022-08-19T10:14:37;18;16;
47081;PMS5003;33066;49.296;14.470;2022-08-19T10:17:04;18;16;
47081;PMS5003;33066;49.296;14.470;2022-08-19T10:19:29;17;17;
47081;PMS5003;33066;49.296;14.470;2022-08-19T10:21:53;19;19;
47081;PMS5003;33066;49.296;14.470;2022-08-19T10:24:18;18;18;
47081;PMS5003;33066;49.296;14.470;2022-08-19T10:26:43;24;20;
47081;PMS5003;33066;49.296;14.470;2022-08-19T10:29:09;18;17;
47081;PMS5003;33066;49.296;14.470;2022-08-19T10:31:34;16;13;
47081;PMS5003;33066;49.296;14.470;2022-08-19T10:34:01;15;15;
47081;PMS5003;33066;49.296;14.470;2022-08-19T10:36:26;17;17;
47081;PMS5003;33066;49.296;14.470;2022-08-19T10:38:53;14;14;
47081;PMS5003;33066;49.296;14.470;2022-08-19T10:41:18;17;15;
47081;PMS5003;33066;49.296;14.470;2022-08-19T10:43:43;18;18;
47081;PMS5003;33066;49.296;14.470;2022-08-19T10:46:09;22;21;
47081;PMS5003;33066;49.296;14.470;2022-08-19T10:48:34;21;21;
47081;PMS5003;33066;49.296;14.470;2022-08-19T10:50:59;18;15;
47081;PMS5003;33066;49.296;14.470;2022-08-19T10:53:25;18;16;
47081;PMS5003;33066;49.296;14.470;2022-08-19T10:55:50;16;14;
47081;PMS5003;33066;49.296;14.470;2022-08-19T10:58:17;23;20;
47081;PMS5003;33066;49.296;14.470;2022-08-19T11:00:42;16;16;
47081;PMS5003;33066;49.296;14.470;2022-08-19T11:03:07;16;14;
47081;PMS5003;33066;49.296;14.470;2022-08-19T11:05:32;16;15;
47081;PMS5003;33066;49.296;14.470;2022-08-19T11:07:59;18;17;
47081;PMS5003;33066;49.296;14.470;2022-08-19T11:10:24;18;18;
47081;PMS5003;33066;49.296;14.470;2022-08-19T11:12:49;18;17;
47081;PMS5003;33066;49.296;14.470;2022-08-19T11:15:15;18;17;
47081;PMS5003;33066;49.296;14.470;2022-08-19T11:17:40;27;26;
47081;PMS5003;33066;49.296;14.470;2022-08-19T11:20:07;16;14;
47081;PMS5003;33066;49.296;14.470;2022-08-19T11:22:32;17;17;
47081;PMS5003;33066;49.296;14.470;2022-08-19T11:24:56;20;20;
47081;PMS5003;33066;49.296;14.470;2022-08-19T11:27:22;21;21;
47081;PMS5003;33066;49.296;14.470;2022-08-19T11:29:46;16;16;
47081;PMS5003;33066;49.296;14.470;2022-08-19T11:32:12;16;16;
47081;PMS5003;33066;49.296;14.470;2022-08-19T11:34:39;13;13;
47081;PMS5003;33066;49.296;14.470;2022-08-19T11:37:04;19;17;
47081;PMS5003;33066;49.296;14.470;2022-08-19T11:39:29;11;11;
47081;PMS5003;33066;49.296;14.470;2022-08-19T11:41:54;15;14;
47081;PMS5003;33066;49.296;14.470;2022-08-19T11:44:21;17;17;
47081;PMS5003;33066;49.296;14.470;2022-08-19T11:46:45;17;14;
47081;PMS5003;33066;49.296;14.470;2022-08-19T11:49:11;15;12;
47081;PMS5003;33066;49.296;14.470;2022-08-19T11:51:37;19;16;
47081;PMS5003;33066;49.296;14.470;2022-08-19T11:54:04;18;16;
47081;PMS5003;33066;49.296;14.470;2022-08-19T11:56:27;15;15;
47081;PMS5003;33066;49.296;14.470;2022-08-19T11:58:54;13;12;
47081;PMS5003;33066;49.296;14.470;2022-08-19T12:01:18;14;14;
47081;PMS5003;33066;49.296;14.470;2022-08-19T12:03:43;17;17;
47081;PMS5003;33066;49.296;14.470;2022-08-19T12:06:09;13;13;
47081;PMS5003;33066;49.296;14.470;2022-08-19T12:08:34;15;15;
47081;PMS5003;33066;49.296;14.470;2022-08-19T12:10:59;19;18;
47081;PMS5003;33066;49.296;14.470;2022-08-19T12:13:25;13;11;
47081;PMS5003;33066;49.296;14.470;2022-08-19T12:15:51;11;11;
47081;PMS5003;33066;49.296;14.470;2022-08-19T12:18:16;13;13;
47081;PMS5003;33066;49.296;14.470;2022-08-19T12:20:43;17;17;
47081;PMS5003;33066;49.296;14.470;2022-08-19T12:23:10;14;13;
47081;PMS5003;33066;49.296;14.470;2022-08-19T12:25:35;10;10;
47081;PMS5003;33066;49.296;14.470;2022-08-19T12:27:58;19;19;
47081;PMS5003;33066;49.296;14.470;2022-08-19T12:30:24;15;13;
47081;PMS5003;33066;49.296;14.470;2022-08-19T12:32:49;12;12;
47081;PMS5003;33066;49.296;14.470;2022-08-19T12:35:15;12;12;
47081;PMS5003;33066;49.296;14.470;2022-08-19T12:37:42;14;11;
47081;PMS5003;33066;49.296;14.470;2022-08-19T12:40:06;17;12;
47081;PMS5003;33066;49.296;14.470;2022-08-19T12:42:31;12;12;
47081;PMS5003;33066;49.296;14.470;2022-08-19T12:44:56;16;13;
47081;PMS5003;33066;49.296;14.470;2022-08-19T12:47:22;13;13;
47081;PMS5003;33066;49.296;14.470;2022-08-19T12:49:48;13;11;
47081;PMS5003;33066;49.296;14.470;2022-08-19T12:52:13;14;13;
47081;PMS5003;33066;49.296;14.470;2022-08-19T12:54:38;12;12;
47081;PMS5003;33066;49.296;14.470;2022-08-19T12:57:05;13;13;
47081;PMS5003;33066;49.296;14.470;2022-08-19T12:59:30;15;14;
47081;PMS5003;33066;49.296;14.470;2022-08-19T13:01:55;17;12;
47081;PMS5003;33066;49.296;14.470;2022-08-19T13:04:20;10;10;
47081;PMS5003;33066;49.296;14.470;2022-08-19T13:06:45;13;13;
47081;PMS5003;33066;49.296;14.470;2022-08-19T13:09:11;11;11;
47081;PMS5003;33066;49.296;14.470;2022-08-19T13:11:37;13;12;
47081;PMS5003;33066;49.296;14.470;2022-08-19T13:14:03;9;9;
47081;PMS5003;33066;49.296;14.470;2022-08-19T13:16:28;14;11;
47081;PMS5003;33066;49.296;14.470;2022-08-19T13:18:54;14;14;
47081;PMS5003;33066;49.296;14.470;2022-08-19T13:21:20;8;8;
47081;PMS5003;33066;49.296;14.470;2022-08-19T13:23:44;10;9;
47081;PMS5003;33066;49.296;14.470;2022-08-19T13:26:10;12;10;
47081;PMS5003;33066;49.296;14.470;2022-08-19T13:28:36;9;9;
47081;PMS5003;33066;49.296;14.470;2022-08-19T13:31:02;10;10;
47081;PMS5003;33066;49.296;14.470;2022-08-19T13:33:27;11;11;
47081;PMS5003;33066;49.296;14.470;2022-08-19T13:35:58;9;9;
47081;PMS5003;33066;49.296;14.470;2022-08-19T13:38:18;13;12;
47081;PMS5003;33066;49.296;14.470;2022-08-19T13:40:43;15;10;
47081;PMS5003;33066;49.296;14.470;2022-08-19T13:43:08;14;14;
47081;PMS5003;33066;49.296;14.470;2022-08-19T13:45:33;16;14;
47081;PMS5003;33066;49.296;14.470;2022-08-19T13:47:59;9;7;
47081;PMS5003;33066;49.296;14.470;2022-08-19T13:50:26;9;9;
47081;PMS5003;33066;49.296;14.470;2022-08-19T13:52:51;9;9;
47081;PMS5003;33066;49.296;14.470;2022-08-19T13:55:16;10;9;
47081;PMS5003;33066;49.296;14.470;2022-08-19T13:57:41;10;10;
47081;PMS5003;33066;49.296;14.470;2022-08-19T14:00:08;9;9;
47081;PMS5003;33066;49.296;14.470;2022-08-19T14:02:32;15;11;
47081;PMS5003;33066;49.296;14.470;2022-08-19T14:04:59;8;8;
47081;PMS5003;33066;49.296;14.470;2022-08-19T14:07:24;11;9;
47081;PMS5003;33066;49.296;14.470;2022-08-19T14:09:49;10;8;
47081;PMS5003;33066;49.296;14.470;2022-08-19T14:12:19;13;13;
47081;PMS5003;33066;49.296;14.470;2022-08-19T14:14:40;12;11;
47081;PMS5003;33066;49.296;14.470;2022-08-19T14:17:06;9;9;
47081;PMS5003;33066;49.296;14.470;2022-08-19T14:19:32;10;10;
47081;PMS5003;33066;49.296;14.470;2022-08-19T14:21:57;15;14;
47081;PMS5003;33066;49.296;14.470;2022-08-19T14:24:22;9;9;
47081;PMS5003;33066;49.296;14.470;2022-08-19T14:26:48;10;10;
47081;PMS5003;33066;49.296;14.470;2022-08-19T14:29:13;9;7;
47081;PMS5003;33066;49.296;14.470;2022-08-19T14:31:40;10;9;
47081;PMS5003;33066;49.296;14.470;2022-08-19T14:34:04;11;10;
47081;PMS5003;33066;49.296;14.470;2022-08-19T14:36:30;7;7;
47081;PMS5003;33066;49.296;14.470;2022-08-19T14:38:56;10;9;
47081;PMS5003;33066;49.296;14.470;2022-08-19T14:41:22;10;10;
47081;PMS5003;33066;49.296;14.470;2022-08-19T14:43:47;10;10;
47081;PMS5003;33066;49.296;14.470;2022-08-19T14:46:12;9;9;
47081;PMS5003;33066;49.296;14.470;2022-08-19T14:48:38;13;11;
47081;PMS5003;33066;49.296;14.470;2022-08-19T14:51:03;9;9;
47081;PMS5003;33066;49.296;14.470;2022-08-19T14:53:30;11;9;
47081;PMS5003;33066;49.296;14.470;2022-08-19T14:55:53;13;13;
47081;PMS5003;33066;49.296;14.470;2022-08-19T14:58:19;9;7;
47081;PMS5003;33066;49.296;14.470;2022-08-19T15:00:45;12;10;
47081;PMS5003;33066;49.296;14.470;2022-08-19T15:03:10;10;10;
47081;PMS5003;33066;49.296;14.470;2022-08-19T15:05:35;9;9;
47081;PMS5003;33066;49.296;14.470;2022-08-19T15:08:02;11;9;
47081;PMS5003;33066;49.296;14.470;2022-08-19T15:10:27;10;9;
47081;PMS5003;33066;49.296;14.470;2022-08-19T15:12:53;10;9;
47081;PMS5003;33066;49.296;14.470;2022-08-19T15:15:17;12;12;
47081;PMS5003;33066;49.296;14.470;2022-08-19T15:17:43;11;10;
47081;PMS5003;33066;49.296;14.470;2022-08-19T15:20:09;12;11;
47081;PMS5003;33066;49.296;14.470;2022-08-19T15:22:35;9;9;
47081;PMS5003;33066;49.296;14.470;2022-08-19T15:25:00;10;9;
47081;PMS5003;33066;49.296;14.470;2022-08-19T15:27:26;9;9;
47081;PMS5003;33066;49.296;14.470;2022-08-19T15:29:51;12;10;
47081;PMS5003;33066;49.296;14.470;2022-08-19T15:32:16;8;8;
47081;PMS5003;33066;49.296;14.470;2022-08-19T15:34:42;12;11;
47081;PMS5003;33066;49.296;14.470;2022-08-19T15:37:07;7;7;
47081;PMS5003;33066;49.296;14.470;2022-08-19T15:39:32;13;12;
47081;PMS5003;33066;49.296;14.470;2022-08-19T15:41:58;8;8;
47081;PMS5003;33066;49.296;14.470;2022-08-19T15:44:23;10;8;
47081;PMS5003;33066;49.296;14.470;2022-08-19T15:46:49;11;10;
47081;PMS5003;33066;49.296;14.470;2022-08-19T15:49:16;11;11;
47081;PMS5003;33066;49.296;14.470;2022-08-19T15:51:41;13;12;
47081;PMS5003;33066;49.296;14.470;2022-08-19T15:54:07;8;8;
47081;PMS5003;33066;49.296;14.470;2022-08-19T15:56:31;11;10;
47081;PMS5003;33066;49.296;14.470;2022-08-19T15:58:57;11;7;
47081;PMS5003;33066;49.296;14.470;2022-08-19T16:01:23;12;8;